Time;durP1;ratioP1;P1;durP2;ratioP2;P2;SDS_P1;SDS_P2;PMS_P1;PMS_P2;Temp;Humidity;BMP_temperature;BMP_pressure;BME280_temperature;BME280_humidity;BME280_pressure;Samples;Min_cycle;Max_cycle;Signal;HPM_P1;HPM_P2
2021/12/25 00:04:30;;;;;;;3.10;1.92;;;;;;;5.00;100.00;97775.02;4445426;78;28531;-80
2021/12/25 00:10:32;;;;;;;3.72;2.10;;;;;;;5.03;100.00;97781.75;4461954;77;28491;-79
2021/12/25 00:16:33;;;;;;;3.22;1.70;;;;;;;5.02;100.00;97772.14;4472474;77;28531;-79
2021/12/25 00:22:35;;;;;;;4.50;2.20;;;;;;;4.88;100.00;97782.95;4472921;77;28446;-78
2021/12/25 00:29:05;;;;;;;3.75;1.65;;;;;;;4.79;100.00;97792.31;4478488;77;28546;-80
2021/12/25 00:34:41;;;;;;;3.40;1.92;;;;;;;4.53;100.00;97797.41;4441816;77;28468;-82
2021/12/25 00:40:42;;;;;;;4.35;2.25;;;;;;;4.64;100.00;97818.50;4468932;77;28546;-81
2021/12/25 00:46:43;;;;;;;3.92;2.25;;;;;;;4.59;100.00;97822.66;4493830;77;28485;-80
2021/12/25 00:52:44;;;;;;;5.53;2.87;;;;;;;4.81;100.00;97850.16;4471434;77;28507;-79
2021/12/25 00:58:46;;;;;;;4.92;2.52;;;;;;;4.92;100.00;97857.10;4457791;77;28517;-81
2021/12/25 01:04:48;;;;;;;5.65;2.77;;;;;;;4.92;100.00;97866.42;4459899;78;28471;-82
2021/12/25 01:10:52;;;;;;;5.45;3.08;;;;;;;4.99;100.00;97861.81;4467096;77;28531;-84
2021/12/25 01:24:10;;;;;;;5.15;3.00;;;;;;;4.40;100.00;97900.86;4472731;77;28517;-82
2021/12/25 01:47:43;;;;;;;5.35;3.27;;;;;;;4.32;100.00;97909.91;4471809;77;28545;-80
2021/12/25 01:47:52;;;;;;;5.15;3.15;;;;;;;4.19;100.00;97905.54;4447459;77;28502;-80
2021/12/25 01:53:54;;;;;;;4.78;3.12;;;;;;;4.32;100.00;97925.38;4454202;77;28505;-80
2021/12/25 01:59:57;;;;;;;7.30;3.45;;;;;;;4.16;100.00;97920.08;4497579;77;28456;-79
2021/12/25 02:06:00;;;;;;;7.10;3.72;;;;;;;4.30;100.00;97929.28;4475719;77;28551;-80
2021/12/25 02:12:04;;;;;;;8.15;4.00;;;;;;;4.21;100.00;97929.25;4459020;77;28518;-81
2021/12/25 02:18:22;;;;;;;8.80;4.00;;;;;;;4.36;100.00;97927.09;4474835;77;28495;-81
2021/12/25 02:24:36;;;;;;;6.35;3.85;;;;;;;4.48;100.00;97950.33;4462551;77;28589;-79
2021/12/25 02:30:36;;;;;;;5.47;4.35;;;;;;;4.41;100.00;97947.19;4476135;77;28523;-79
2021/12/25 02:36:38;;;;;;;8.40;4.25;;;;;;;4.36;100.00;97970.17;4406825;77;28450;-78
2021/12/25 02:42:40;;;;;;;6.78;3.77;;;;;;;4.19;100.00;97974.18;4481994;77;28463;-82
2021/12/25 02:48:42;;;;;;;6.08;4.35;;;;;;;4.22;100.00;97986.24;4486958;77;28475;-81
2021/12/25 02:54:45;;;;;;;6.47;3.80;;;;;;;4.53;100.00;97988.56;4493595;77;28539;-81
2021/12/25 03:01:01;;;;;;;7.12;4.30;;;;;;;4.16;100.00;98001.22;4459988;78;28515;-81
2021/12/25 03:07:03;;;;;;;7.72;4.10;;;;;;;4.24;100.00;98022.76;4491671;77;28485;-81
2021/12/25 03:19:20;;;;;;;8.08;4.58;;;;;;;3.90;100.00;98037.61;4479487;78;28491;-81
2021/12/25 03:25:17;;;;;;;6.60;4.35;;;;;;;3.95;100.00;98050.77;4520474;78;28510;-81
2021/12/25 03:31:21;;;;;;;6.53;4.33;;;;;;;4.10;100.00;98033.99;4453183;78;28499;-81
2021/12/25 03:37:23;;;;;;;5.80;3.98;;;;;;;4.18;100.00;98052.91;4487035;78;28530;-80
2021/12/25 03:43:24;;;;;;;5.70;4.10;;;;;;;4.13;100.00;98063.35;4426600;78;28484;-80
2021/12/25 03:49:28;;;;;;;7.60;4.25;;;;;;;4.17;100.00;98068.03;4472182;78;28498;-81
2021/12/25 04:01:56;;;;;;;5.20;3.20;;;;;;;3.94;100.00;98077.86;4450185;78;28526;-82
2021/12/25 04:08:02;;;;;;;3.17;2.17;;;;;;;2.90;100.00;98115.18;4408706;78;28538;-80
2021/12/25 04:14:01;;;;;;;3.85;2.00;;;;;;;1.55;100.00;98140.98;4471039;77;28576;-80
2021/12/25 04:20:06;;;;;;;3.15;2.10;;;;;;;1.53;100.00;98145.17;4452239;77;29588;-81
2021/12/25 04:26:08;;;;;;;3.55;1.98;;;;;;;1.75;100.00;98160.98;4448095;77;28507;-81
2021/12/25 05:03:57;;;;;;;2.52;1.50;;;;;;;1.28;100.00;98237.49;4480869;77;43242;-82
2021/12/25 05:09:58;;;;;;;1.75;1.20;;;;;;;0.89;100.00;98256.78;4470774;77;43254;-82
2021/12/25 05:16:02;;;;;;;3.10;1.80;;;;;;;0.76;100.00;98255.61;4464922;78;43437;-82
2021/12/25 05:22:04;;;;;;;2.47;1.45;;;;;;;1.31;100.00;98256.97;4514694;77;43225;-80
2021/12/25 05:28:06;;;;;;;3.15;1.65;;;;;;;1.57;100.00;98266.16;4520457;77;43425;-80
2021/12/25 05:34:08;;;;;;;1.77;1.25;;;;;;;1.43;100.00;98270.52;4487619;77;43361;-83
2021/12/25 05:40:24;;;;;;;3.47;1.35;;;;;;;0.95;100.00;98282.48;4479367;77;28521;-81
2021/12/25 05:46:27;;;;;;;1.77;1.17;;;;;;;0.95;100.00;98282.48;4479502;77;43281;-80
2021/12/25 05:52:28;;;;;;;2.58;1.17;;;;;;;0.77;100.00;98296.94;4453823;77;43259;-86
2021/12/25 05:58:34;;;;;;;4.55;1.10;;;;;;;0.39;100.00;98309.81;4437032;77;43317;-79
2021/12/25 06:04:38;;;;;;;2.37;1.30;;;;;;;0.60;100.00;98323.31;4429006;77;43281;-78
2021/12/25 06:10:42;;;;;;;1.67;0.98;;;;;;;0.75;100.00;98333.36;4459458;77;43243;-81
2021/12/25 06:16:44;;;;;;;3.12;1.40;;;;;;;0.60;100.00;98345.80;4460023;77;43224;-79
2021/12/25 06:22:48;;;;;;;2.33;1.52;;;;;;;0.83;100.00;98365.02;4462525;77;43541;-78
2021/12/25 06:28:55;;;;;;;2.50;1.30;;;;;;;0.74;100.00;98372.73;4456287;77;43309;-79
2021/12/25 06:35:08;;;;;;;2.52;1.40;;;;;;;0.63;100.00;98383.78;4466945;77;43195;-85
2021/12/25 06:41:13;;;;;;;2.50;1.47;;;;;;;0.42;100.00;98395.91;4463519;77;43214;-79
2021/12/25 06:47:16;;;;;;;1.98;1.40;;;;;;;-0.06;100.00;98416.02;4471173;77;43329;-76
2021/12/25 06:53:19;;;;;;;2.37;1.20;;;;;;;-0.33;100.00;98440.63;4474738;77;43298;-78
2021/12/25 06:59:31;;;;;;;2.55;1.30;;;;;;;-0.54;100.00;98447.88;4460156;77;43281;-74
2021/12/25 07:05:32;;;;;;;3.12;1.42;;;;;;;-0.72;100.00;98452.91;4479489;77;43221;-78
2021/12/25 07:11:43;;;;;;;3.10;1.57;;;;;;;-0.74;100.00;98468.91;4468450;77;43401;-75
2021/12/25 07:18:03;;;;;;;4.05;1.50;;;;;;;-0.29;100.00;98461.25;4469235;77;43328;-78
2021/12/25 07:24:14;;;;;;;1.98;1.30;;;;;;;-0.77;100.00;98477.19;4458388;77;43266;-79
2021/12/25 07:30:18;;;;;;;3.98;1.60;;;;;;;-0.32;100.00;98484.55;4424264;78;43423;-76
2021/12/25 07:36:19;;;;;;;3.65;1.25;;;;;;;-0.32;100.00;98488.50;4456628;77;43259;-77
2021/12/25 07:42:20;;;;;;;4.42;1.62;;;;;;;-0.19;100.00;98487.45;4454518;77;43396;-74
2021/12/25 07:48:34;;;;;;;2.83;1.57;;;;;;;0.05;100.00;98499.34;4425649;77;43263;-75
2021/12/25 07:54:35;;;;;;;2.58;1.40;;;;;;;0.34;100.00;98503.92;4469796;77;43217;-78
2021/12/25 08:00:36;;;;;;;3.52;1.62;;;;;;;0.43;100.00;98500.70;4485390;77;43448;-76
2021/12/25 08:06:39;;;;;;;2.83;2.00;;;;;;;0.41;100.00;98517.25;4461978;77;43515;-76
2021/12/25 08:12:47;;;;;;;2.58;1.70;;;;;;;0.40;100.00;98530.97;4475781;77;43427;-76
2021/12/25 08:18:49;;;;;;;3.27;1.85;;;;;;;0.75;100.00;98529.70;4464078;77;43462;-75
2021/12/25 08:25:11;;;;;;;3.55;2.00;;;;;;;0.89;100.00;98542.12;4461920;77;43399;-78
2021/12/25 08:31:30;;;;;;;4.28;1.80;;;;;;;0.89;100.00;98555.88;4469630;77;43400;-77
2021/12/25 08:37:49;;;;;;;4.95;1.85;;;;;;;0.94;100.00;98535.80;4462498;77;43420;-76
2021/12/25 08:43:56;;;;;;;2.95;1.95;;;;;;;0.99;100.00;98526.00;4476229;77;43400;-79
2021/12/25 08:49:55;;;;;;;4.75;2.17;;;;;;;1.16;100.00;98537.23;4478312;77;43388;-75
2021/12/25 08:55:58;;;;;;;5.05;1.90;;;;;;;1.25;100.00;98540.59;4462875;77;43422;-76
2021/12/25 09:02:02;;;;;;;3.58;2.10;;;;;;;1.41;100.00;98550.67;4462488;77;43358;-77
2021/12/25 09:08:05;;;;;;;4.05;2.25;;;;;;;1.34;100.00;98558.53;4473017;77;43452;-80
2021/12/25 09:14:06;;;;;;;6.70;2.40;;;;;;;1.49;100.00;98559.85;4466703;77;43423;-76
2021/12/25 09:20:10;;;;;;;4.15;2.02;;;;;;;1.48;100.00;98551.09;4464940;77;43386;-75
2021/12/25 09:26:13;;;;;;;4.37;2.22;;;;;;;1.25;100.00;98567.91;4462185;77;43431;-75
2021/12/25 09:32:14;;;;;;;3.67;2.05;;;;;;;1.33;100.00;98564.84;4462094;77;43461;-75
2021/12/25 09:38:16;;;;;;;3.37;2.08;;;;;;;0.79;100.00;98562.24;4457506;77;43417;-74
2021/12/25 09:44:18;;;;;;;3.65;2.45;;;;;;;1.29;100.00;98556.95;4478361;77;43408;-75
2021/12/25 09:50:19;;;;;;;3.67;2.40;;;;;;;1.37;100.00;98557.67;4476238;77;43369;-75
2021/12/25 09:56:21;;;;;;;5.85;2.55;;;;;;;1.69;100.00;98561.94;4475463;77;43396;-75
2021/12/25 10:02:22;;;;;;;4.37;2.12;;;;;;;0.87;100.00;98573.25;4480687;77;43455;-75
2021/12/25 10:08:27;;;;;;;4.67;2.17;;;;;;;1.39;92.61;98554.33;4471370;77;43399;-75
2021/12/25 10:14:28;;;;;;;3.60;2.00;;;;;;;1.44;88.70;98547.67;4393908;79;43373;-75
2021/12/25 10:20:32;;;;;;;3.98;1.57;;;;;;;1.08;86.89;98526.20;4369589;79;43402;-75
2021/12/25 10:26:36;;;;;;;4.35;1.65;;;;;;;1.24;90.36;98524.39;4365490;79;28555;-75
2021/12/25 10:32:39;;;;;;;4.28;1.60;;;;;;;1.33;81.38;98535.70;4358042;79;28470;-76
2021/12/25 10:38:42;;;;;;;4.05;1.80;;;;;;;1.04;83.29;98534.69;4364485;79;28527;-75
2021/12/25 10:44:50;;;;;;;3.65;1.70;;;;;;;1.17;81.12;98540.68;4369860;79;43405;-76
2021/12/25 10:50:59;;;;;;;4.03;1.90;;;;;;;0.57;81.66;98552.01;4353204;79;43435;-80
2021/12/25 10:57:05;;;;;;;4.78;1.50;;;;;;;1.12;83.54;98538.58;4258602;80;43316;-77
2021/12/25 11:03:10;;;;;;;3.27;1.35;;;;;;;0.69;80.07;98551.89;4260637;80;43254;-75
2021/12/25 11:09:13;;;;;;;4.08;1.62;;;;;;;1.01;81.23;98554.42;4286099;80;28447;-79
2021/12/25 11:15:19;;;;;;;3.08;1.45;;;;;;;1.08;75.83;98554.52;4388005;79;43312;-77
2021/12/25 11:21:21;;;;;;;4.65;2.10;;;;;;;0.89;78.83;98559.33;4398962;79;43398;-77
2021/12/25 11:27:22;;;;;;;4.25;1.70;;;;;;;0.95;70.81;98553.33;4383995;79;43425;-79
2021/12/25 11:33:23;;;;;;;6.60;1.87;;;;;;;0.78;80.49;98558.44;4396726;79;43449;-74
2021/12/25 11:39:27;;;;;;;6.30;2.10;;;;;;;0.99;74.01;98554.28;4389677;79;43397;-73
2021/12/25 11:45:34;;;;;;;4.60;1.60;;;;;;;0.74;76.97;98538.13;4396971;79;28557;-73
2021/12/25 11:51:39;;;;;;;4.00;1.77;;;;;;;1.25;73.94;98536.63;4397371;79;43496;-72
2021/12/25 11:57:50;;;;;;;5.08;1.90;;;;;;;1.45;62.64;98526.27;4401071;79;43370;-74
2021/12/25 12:03:57;;;;;;;3.55;1.67;;;;;;;1.31;66.60;98531.93;4397224;79;43376;-75
2021/12/25 12:10:03;;;;;;;2.37;1.40;;;;;;;0.53;71.32;98546.77;4396220;79;43222;-75
2021/12/25 12:16:40;;;;;;;3.00;1.80;;;;;;;0.77;66.85;98553.64;4392207;79;43478;-71
2021/12/25 12:23:04;;;;;;;4.72;1.70;;;;;;;0.64;70.83;98572.79;4394736;79;43416;-73
2021/12/25 12:28:58;;;;;;;;;;;;;;;1.17;64.84;98577.27;4397597;79;28505;-72
2021/12/25 12:34:59;;;;;;;3.92;1.30;;;;;;;0.95;68.68;98574.99;4389488;79;43291;-78
2021/12/25 12:41:26;;;;;;;5.12;1.42;;;;;;;0.77;69.57;98572.68;4409374;79;43243;-76
2021/12/25 12:47:28;;;;;;;3.90;1.52;;;;;;;0.91;68.59;98579.81;4397949;79;43265;-75
2021/12/25 12:53:35;;;;;;;4.35;1.92;;;;;;;0.62;68.80;98583.22;4386393;79;43413;-74
2021/12/25 12:59:46;;;;;;;4.62;2.00;;;;;;;0.60;75.71;98581.26;4392536;79;43481;-73
2021/12/25 13:05:53;;;;;;;6.30;1.95;;;;;;;1.13;68.84;98601.12;4398743;79;43448;-74
2021/12/25 13:12:08;;;;;;;5.05;2.40;;;;;;;0.74;72.86;98604.80;4384413;79;43423;-75
2021/12/25 13:18:05;;;;;;;7.40;2.52;;;;;;;0.38;77.56;98605.70;4395243;79;41868;-74
2021/12/25 13:24:14;;;;;;;5.20;2.05;;;;;;;0.01;78.40;98616.52;4394468;79;43433;-74
2021/12/25 13:30:17;;;;;;;6.25;2.33;;;;;;;-0.26;78.20;98621.73;4384491;79;43435;-77
2021/12/25 13:36:26;;;;;;;8.05;2.22;;;;;;;-0.10;78.38;98631.44;4397220;79;43063;-72
2021/12/25 13:42:28;;;;;;;6.72;2.30;;;;;;;0.04;80.85;98636.47;4386070;79;43439;-76
2021/12/25 13:48:39;;;;;;;8.08;3.20;;;;;;;-0.32;76.15;98632.00;4387694;79;42735;-76
2021/12/25 13:54:43;;;;;;;7.72;2.20;;;;;;;-0.66;83.68;98644.14;4391266;79;41897;-74
2021/12/25 14:00:49;;;;;;;5.58;1.80;;;;;;;-0.55;87.29;98648.26;4398183;79;28588;-75
2021/12/25 14:06:51;;;;;;;6.22;2.50;;;;;;;-0.58;88.18;98658.14;4380919;79;43437;-74
2021/12/25 14:12:59;;;;;;;8.10;3.17;;;;;;;-0.51;89.53;98674.16;4391037;79;42715;-74
2021/12/25 14:19:09;;;;;;;7.10;2.65;;;;;;;-0.48;87.18;98679.09;4396910;79;41867;-76
2021/12/25 14:25:21;;;;;;;7.80;2.70;;;;;;;-0.66;88.43;98665.27;4398917;79;42601;-74
2021/12/25 14:31:23;;;;;;;8.25;2.52;;;;;;;-0.70;85.25;98681.94;4388273;79;42585;-74
2021/12/25 14:37:32;;;;;;;7.17;2.58;;;;;;;-0.68;85.26;98678.62;4399057;79;41951;-73
2021/12/25 14:43:35;;;;;;;8.38;2.05;;;;;;;-0.53;81.69;98695.93;4394959;79;41896;-74
2021/12/25 14:49:46;;;;;;;8.83;2.92;;;;;;;-0.71;82.14;98700.09;4394312;79;42734;-75
2021/12/25 14:55:53;;;;;;;7.10;2.55;;;;;;;-0.36;82.53;98694.59;4393967;79;41848;-72
2021/12/25 15:02:00;;;;;;;7.70;2.70;;;;;;;-0.24;80.54;98693.75;4407664;79;41901;-73
2021/12/25 15:08:19;;;;;;;7.05;2.42;;;;;;;-0.37;80.65;98690.30;4393634;79;41857;-73
2021/12/25 15:14:30;;;;;;;8.60;3.02;;;;;;;-0.68;85.23;98698.42;4369237;79;42744;-74
2021/12/25 15:20:32;;;;;;;8.45;2.85;;;;;;;-0.64;86.95;98716.92;4371285;79;42719;-74
2021/12/25 15:26:46;;;;;;;7.17;2.87;;;;;;;-0.78;84.50;98696.45;4377056;79;42587;-71
2021/12/25 15:32:55;;;;;;;8.80;3.50;;;;;;;-0.15;82.30;98700.66;4367274;79;28526;-72
2021/12/25 15:38:56;;;;;;;11.40;3.52;;;;;;;-0.23;82.46;98716.02;4368689;79;43219;-74
2021/12/25 15:44:58;;;;;;;7.97;3.35;;;;;;;-0.84;88.79;98723.02;4371925;79;42707;-73
2021/12/25 15:50:59;;;;;;;8.83;3.30;;;;;;;-0.21;81.04;98717.18;4364823;79;42680;-74
2021/12/25 15:57:01;;;;;;;9.23;3.50;;;;;;;-0.35;87.56;98726.14;4370931;79;42708;-72
2021/12/25 16:03:02;;;;;;;9.40;2.75;;;;;;;-0.77;91.92;98743.02;4371878;79;42789;-72
2021/12/25 16:09:04;;;;;;;6.30;2.40;;;;;;;-0.96;94.74;98737.05;4364740;79;43449;-73
2021/12/25 16:15:07;;;;;;;5.05;1.62;;;;;;;-0.37;79.77;98744.45;4376335;79;43444;-73
2021/12/25 16:21:08;;;;;;;4.00;1.72;;;;;;;-0.41;76.05;98743.16;4392178;79;43411;-73
2021/12/25 16:27:10;;;;;;;5.25;1.90;;;;;;;-0.78;81.48;98750.09;4388468;78;43448;-75
2021/12/25 16:33:11;;;;;;;6.28;1.42;;;;;;;-0.57;75.77;98750.92;4386011;79;43191;-72
2021/12/25 16:39:16;;;;;;;4.92;1.67;;;;;;;-0.92;74.82;98748.92;4386755;79;43433;-74
2021/12/25 16:45:18;;;;;;;6.72;2.10;;;;;;;-0.97;79.64;98764.44;4385410;79;28527;-71
2021/12/25 16:51:19;;;;;;;3.85;1.70;;;;;;;-1.21;81.24;98759.44;4389246;78;43398;-74
2021/12/25 16:57:21;;;;;;;4.40;2.05;;;;;;;-1.24;78.77;98743.94;4407141;79;43393;-72
2021/12/25 17:03:22;;;;;;;5.55;2.02;;;;;;;-1.30;86.30;98773.11;4394353;79;43448;-75
2021/12/25 17:09:24;;;;;;;6.53;2.10;;;;;;;-1.32;83.36;98769.81;4394776;79;43401;-77
2021/12/25 17:15:29;;;;;;;6.72;2.12;;;;;;;-1.20;88.79;98778.73;4383818;79;43441;-76
2021/12/25 17:21:37;;;;;;;6.63;2.53;;;;;;;-1.24;86.48;98787.47;4360900;79;28545;-76
2021/12/25 17:27:38;;;;;;;7.22;2.37;;;;;;;-1.10;88.59;98787.34;4385597;79;41926;-74
2021/12/25 17:33:42;;;;;;;7.40;2.15;;;;;;;-1.14;87.12;98787.34;4381846;79;41851;-79
2021/12/25 17:39:44;;;;;;;9.38;2.70;;;;;;;-0.76;86.87;98804.87;4385292;79;42735;-75
2021/12/25 17:45:46;;;;;;;7.62;2.85;;;;;;;-0.58;85.23;98803.39;4382933;79;42619;-76
2021/12/25 17:51:47;;;;;;;6.75;2.42;;;;;;;-1.10;86.47;98808.92;4395528;79;42630;-77
2021/12/25 17:57:48;;;;;;;8.68;2.58;;;;;;;-1.00;86.66;98827.60;4377648;79;42697;-79
2021/12/25 18:03:50;;;;;;;5.15;1.95;;;;;;;-1.28;82.76;98830.48;4377216;79;43440;-79
2021/12/25 18:09:51;;;;;;;6.00;2.20;;;;;;;-1.16;81.50;98823.59;4381143;79;43402;-78
2021/12/25 18:15:54;;;;;;;7.55;2.83;;;;;;;-0.76;83.78;98822.03;4407200;79;42230;-74
2021/12/25 18:21:56;;;;;;;9.28;2.60;;;;;;;-1.20;83.16;98815.16;4408483;79;42680;-76
2021/12/25 18:27:57;;;;;;;8.15;2.70;;;;;;;-1.06;86.75;98831.38;4405300;79;42599;-76
2021/12/25 18:33:58;;;;;;;6.60;2.47;;;;;;;-0.87;89.63;98833.74;4401509;79;42648;-73
2021/12/25 18:40:01;;;;;;;6.83;2.60;;;;;;;-0.86;97.04;98840.67;4386009;79;41876;-76
2021/12/25 18:46:02;;;;;;;8.53;2.75;;;;;;;-0.79;86.69;98823.69;4384566;79;42764;-75
2021/12/25 18:52:06;;;;;;;6.42;2.35;;;;;;;-1.05;87.94;98818.01;4399796;79;43454;-75
2021/12/25 18:58:08;;;;;;;8.70;2.65;;;;;;;-1.39;87.03;98826.00;4404744;79;42749;-74
2021/12/25 19:04:10;;;;;;;6.90;2.87;;;;;;;-1.38;90.62;98819.74;4393223;79;41884;-74
2021/12/25 19:10:13;;;;;;;9.13;3.05;;;;;;;-1.47;91.27;98823.66;4387081;79;42698;-77
2021/12/25 19:16:14;;;;;;;7.00;2.75;;;;;;;-1.70;92.96;98821.58;4409040;79;41812;-74
2021/12/25 19:22:16;;;;;;;8.13;2.50;;;;;;;-1.72;91.93;98829.31;4406105;79;42537;-74
2021/12/25 19:28:18;;;;;;;9.40;2.70;;;;;;;-1.82;93.19;98825.48;4407031;79;42699;-73
2021/12/25 19:34:19;;;;;;;7.58;3.17;;;;;;;-2.07;98.79;98829.27;4407819;79;42611;-72
2021/12/25 19:40:23;;;;;;;8.68;2.85;;;;;;;-1.98;94.09;98830.97;4397241;79;42809;-74
2021/12/25 19:46:26;;;;;;;9.20;2.70;;;;;;;-2.32;100.00;98833.05;4402645;79;42668;-71
2021/12/25 19:52:28;;;;;;;8.83;3.20;;;;;;;-2.45;100.00;98836.06;4390975;79;42711;-78
2021/12/25 19:58:33;;;;;;;9.18;3.25;;;;;;;-2.42;100.00;98844.97;4397238;79;42759;-76
2021/12/25 20:04:36;;;;;;;11.30;3.50;;;;;;;-2.49;100.00;98841.31;4407966;79;28536;-77
2021/12/25 20:10:39;;;;;;;8.65;2.83;;;;;;;-2.52;100.00;98842.44;4404544;79;42766;-74
2021/12/25 20:16:40;;;;;;;8.73;3.15;;;;;;;-2.47;100.00;98849.87;4389794;79;42723;-76
2021/12/25 20:22:42;;;;;;;8.78;3.15;;;;;;;-2.73;100.00;98849.81;4390564;79;42754;-78
2021/12/25 20:28:43;;;;;;;8.80;2.77;;;;;;;-2.77;100.00;98853.22;4381159;79;42784;-74
2021/12/25 20:34:45;;;;;;;9.13;3.10;;;;;;;-2.91;100.00;98854.56;4371425;79;42679;-77
2021/12/25 20:40:47;;;;;;;8.23;2.62;;;;;;;-3.14;100.00;98860.23;4375779;79;42655;-76
2021/12/25 20:46:50;;;;;;;8.25;2.87;;;;;;;-3.12;100.00;98868.00;4381472;79;42736;-75
2021/12/25 20:52:51;;;;;;;9.20;2.77;;;;;;;-3.52;100.00;98862.07;4389141;79;42703;-77
2021/12/25 20:58:53;;;;;;;10.32;3.75;;;;;;;-3.38;100.00;98864.24;4390932;79;43279;-75
2021/12/25 21:04:56;;;;;;;9.15;3.08;;;;;;;-3.65;100.00;98865.86;4383763;79;42712;-76
2021/12/25 21:10:57;;;;;;;10.53;3.02;;;;;;;-3.71;100.00;98868.23;4394597;79;43279;-78
2021/12/25 21:16:59;;;;;;;10.32;4.05;;;;;;;-3.65;100.00;98857.13;4395750;79;43265;-77
2021/12/25 21:23:03;;;;;;;8.45;3.12;;;;;;;-3.71;100.00;98864.30;4386807;79;42766;-77
2021/12/25 21:29:05;;;;;;;13.03;4.28;;;;;;;-3.89;100.00;98868.97;4385308;79;43267;-76
2021/12/25 21:35:10;;;;;;;10.25;3.87;;;;;;;-4.15;100.00;98873.52;4386886;79;43234;-79
2021/12/25 21:41:12;;;;;;;10.08;3.92;;;;;;;-4.24;100.00;98880.42;4379717;79;43267;-76
2021/12/25 21:47:13;;;;;;;12.10;4.15;;;;;;;-4.26;100.00;98882.36;4386505;79;43307;-76
2021/12/25 21:53:15;;;;;;;14.05;4.65;;;;;;;-4.35;100.00;98892.38;4386351;79;43261;-76
2021/12/25 21:59:17;;;;;;;10.60;4.25;;;;;;;-4.43;100.00;98885.67;4397688;79;43276;-77
2021/12/25 22:05:19;;;;;;;14.30;5.08;;;;;;;-4.57;100.00;98886.94;4378455;79;43579;-80
2021/12/25 22:11:22;;;;;;;14.03;4.78;;;;;;;-4.60;100.00;98887.19;4383003;79;43618;-76
2021/12/25 22:17:24;;;;;;;12.80;4.37;;;;;;;-4.59;100.00;98889.69;4381984;79;43629;-78
2021/12/25 22:23:30;;;;;;;14.28;5.03;;;;;;;-4.67;100.00;98902.19;4389857;79;43931;-78
2021/12/25 22:29:31;;;;;;;14.15;5.40;;;;;;;-4.99;100.00;98897.16;4388898;79;43949;-77
2021/12/25 22:35:33;;;;;;;12.23;5.40;;;;;;;-4.98;100.00;98900.96;4373506;79;43279;-77
2021/12/25 22:41:35;;;;;;;14.23;5.90;;;;;;;-4.95;100.00;98902.46;4386181;79;43996;-77
2021/12/25 22:47:37;;;;;;;15.20;5.42;;;;;;;-4.86;100.00;98899.53;4392947;79;43953;-76
2021/12/25 22:53:40;;;;;;;15.38;5.12;;;;;;;-5.12;100.00;98902.16;4390445;79;43942;-76
2021/12/25 22:59:41;;;;;;;15.40;6.12;;;;;;;-5.09;100.00;98901.88;4380596;79;43987;-77
2021/12/25 23:05:44;;;;;;;15.75;7.33;;;;;;;-5.32;100.00;98907.80;4365407;79;43958;-76
2021/12/25 23:11:46;;;;;;;18.02;7.65;;;;;;;-5.48;100.00;98913.06;4385089;79;43961;-75
2021/12/25 23:17:49;;;;;;;16.52;6.53;;;;;;;-5.37;100.00;98927.03;4378105;79;44010;-76
2021/12/25 23:23:52;;;;;;;16.87;6.85;;;;;;;-5.39;100.00;98914.05;4388111;79;43931;-75
2021/12/25 23:29:53;;;;;;;17.70;7.03;;;;;;;-5.71;100.00;98915.50;4367590;79;43968;-75
2021/12/25 23:35:55;;;;;;;17.15;6.92;;;;;;;-5.78;100.00;98914.70;4368602;79;43986;-74
2021/12/25 23:41:59;;;;;;;18.17;6.67;;;;;;;-5.71;100.00;98930.72;4376039;79;43922;-75
2021/12/25 23:48:00;;;;;;;18.37;6.87;;;;;;;-5.77;100.00;98937.30;4377923;79;44054;-76
2021/12/25 23:54:01;;;;;;;18.25;7.10;;;;;;;-5.76;100.00;98935.03;4389729;79;43942;-75
